Wetterdaten: Woche 10.12.07 - 16.12.07 (KW50)
Datum Zeit Temperatur Luftfeuchte Luftdruck Niederschlag Wind Richtung Sonnenschein Solar Taupunkt Windchill Windben
10.12.2007 00:00 6.4 C 73 % 996.8 hPa 0.0 l/m 12.1 km/h (2 Bft) SW 0.00 h 0 W/m 1.9 C 4.0 C 22.5 km/h (4 Bft)
10.12.2007 01:00 6.1 C 78 % 996.6 hPa 0.2 l/m 13.3 km/h (3 Bft) SW 0.00 h 0 W/m 2.5 C 3.4 C 23.7 km/h (4 Bft)
10.12.2007 02:00 4.9 C 86 % 996.8 hPa 0.6 l/m 9.7 km/h (2 Bft) S 0.00 h 0 W/m 2.8 C 2.6 C 18.4 km/h (3 Bft)
10.12.2007 03:00 4.2 C 90 % 997.1 hPa 0.4 l/m 6.7 km/h (2 Bft) S 0.00 h 0 W/m 2.7 C 2.7 C 13.7 km/h (3 Bft)
10.12.2007 04:00 4.5 C 91 % 997.2 hPa 1.4 l/m 7.4 km/h (2 Bft) SW 0.00 h 0 W/m 3.2 C 2.8 C 13.7 km/h (3 Bft)
10.12.2007 05:00 4.6 C 92 % 998.0 hPa 2.4 l/m 3.6 km/h (1 Bft) S 0.00 h 0 W/m 3.5 C 4.3 C 6.7 km/h (2 Bft)
10.12.2007 06:00 4.6 C 93 % 999.0 hPa 1.8 l/m 3.5 km/h (1 Bft) S 0.00 h 0 W/m 3.5 C 4.3 C 6.8 km/h (2 Bft)
10.12.2007 07:00 4.2 C 94 % 1000.0 hPa 0.6 l/m 5.6 km/h (1 Bft) SW 0.00 h 0 W/m 3.3 C 3.2 C 10.9 km/h (2 Bft)
10.12.2007 08:00 4.4 C 94 % 1001.2 hPa 0.2 l/m 5.0 km/h (1 Bft) S 0.00 h 13 W/m 3.5 C 3.6 C 9.7 km/h (2 Bft)
10.12.2007 09:00 4.7 C 93 % 1001.9 hPa 0.4 l/m 6.5 km/h (2 Bft) S 0.00 h 34 W/m 3.6 C 3.4 C 12.0 km/h (2 Bft)
10.12.2007 10:00 5.0 C 90 % 1002.9 hPa 1.2 l/m 7.6 km/h (2 Bft) S-SO 0.00 h 35 W/m 3.6 C 3.4 C 14.7 km/h (3 Bft)
10.12.2007 11:00 4.9 C 93 % 1003.7 hPa 1.0 l/m 3.1 km/h (1 Bft) S-SW 0.00 h 48 W/m 3.8 C 4.7 C 6.5 km/h (2 Bft)
10.12.2007 12:00 4.9 C 94 % 1004.0 hPa 0.6 l/m 5.1 km/h (1 Bft) SW 0.00 h 63 W/m 4.0 C 4.1 C 9.8 km/h (2 Bft)
10.12.2007 13:00 5.2 C 93 % 1004.3 hPa 1.4 l/m 5.3 km/h (1 Bft) SW 0.00 h 52 W/m 4.1 C 4.3 C 10.2 km/h (2 Bft)
10.12.2007 14:00 4.9 C 93 % 1005.1 hPa 1.8 l/m 4.3 km/h (1 Bft) SW 0.00 h 27 W/m 3.9 C 4.3 C 8.4 km/h (2 Bft)
10.12.2007 15:00 4.8 C 94 % 1005.8 hPa 1.8 l/m 2.8 km/h (1 Bft) S-SW 0.00 h 13 W/m 3.9 C 4.6 C 5.9 km/h (2 Bft)
10.12.2007 16:00 4.7 C 95 % 1006.6 hPa 1.6 l/m 3.0 km/h (1 Bft) W-SW 0.00 h 6 W/m 3.9 C 4.5 C 5.8 km/h (2 Bft)
10.12.2007 17:00 4.3 C 95 % 1007.4 hPa 1.4 l/m 4.0 km/h (1 Bft) W-SW 0.00 h 0 W/m 3.7 C 3.8 C 6.8 km/h (2 Bft)
10.12.2007 18:00 4.1 C 96 % 1008.1 hPa 0.2 l/m 4.3 km/h (1 Bft) S-SO 0.00 h 0 W/m 3.5 C 3.4 C 7.6 km/h (2 Bft)
10.12.2007 19:00 4.1 C 96 % 1009.1 hPa 0.4 l/m 3.0 km/h (1 Bft) S 0.00 h 0 W/m 3.5 C 3.8 C 6.0 km/h (2 Bft)
10.12.2007 20:00 3.8 C 96 % 1009.9 hPa 0.2 l/m 2.8 km/h (1 Bft) SW 0.00 h 0 W/m 3.2 C 3.7 C 5.7 km/h (1 Bft)
10.12.2007 21:00 3.9 C 96 % 1010.5 hPa 0.2 l/m 3.1 km/h (1 Bft) S 0.00 h 0 W/m 3.3 C 3.6 C 6.4 km/h (2 Bft)
10.12.2007 22:00 4.3 C 96 % 1011.1 hPa 0.0 l/m 3.6 km/h (1 Bft) S-SO 0.00 h 0 W/m 3.7 C 3.9 C 7.3 km/h (2 Bft)
10.12.2007 23:00 4.8 C 95 % 1012.1 hPa 0.0 l/m 9.2 km/h (2 Bft) W 0.00 h 0 W/m 4.1 C 2.8 C 14.5 km/h (3 Bft)
11.12.2007 00:00 5.1 C 92 % 1012.8 hPa 0.0 l/m 9.4 km/h (2 Bft) W 0.00 h 0 W/m 3.9 C 3.0 C 14.5 km/h (3 Bft)
11.12.2007 01:00 5.3 C 90 % 1013.6 hPa 0.0 l/m 11.3 km/h (2 Bft) W 0.00 h 0 W/m 3.8 C 2.8 C 17.2 km/h (3 Bft)
11.12.2007 02:00 5.2 C 88 % 1014.5 hPa 0.0 l/m 8.6 km/h (2 Bft) W 0.00 h 0 W/m 3.3 C 3.3 C 13.4 km/h (3 Bft)
11.12.2007 03:00 4.9 C 86 % 1015.5 hPa 0.0 l/m 4.3 km/h (1 Bft) W-SW 0.00 h 0 W/m 2.7 C 4.3 C 6.8 km/h (2 Bft)
11.12.2007 04:00 4.4 C 86 % 1016.3 hPa 0.0 l/m 1.0 km/h (0 Bft) SW 0.00 h 0 W/m 2.3 C 4.4 C 2.5 km/h (1 Bft)
11.12.2007 05:00 4.5 C 88 % 1017.1 hPa 0.0 l/m 8.7 km/h (2 Bft) W 0.00 h 0 W/m 2.6 C 2.5 C 14.1 km/h (3 Bft)
11.12.2007 06:00 4.6 C 89 % 1018.0 hPa 0.0 l/m 7.6 km/h (2 Bft) W 0.00 h 0 W/m 2.9 C 3.0 C 12.2 km/h (2 Bft)
11.12.2007 07:00 4.6 C 90 % 1018.9 hPa 0.0 l/m 2.5 km/h (1 Bft) W-NW 0.00 h 0 W/m 3.0 C 4.4 C 4.9 km/h (1 Bft)
11.12.2007 08:00 4.1 C 89 % 1019.6 hPa 0.0 l/m 1.6 km/h (1 Bft) SW 0.00 h 15 W/m 2.4 C 3.9 C 3.7 km/h (1 Bft)
11.12.2007 09:00 3.9 C 89 % 1020.5 hPa 0.0 l/m 1.3 km/h (1 Bft) S-SW 0.00 h 47 W/m 2.2 C 3.7 C 2.8 km/h (1 Bft)
11.12.2007 10:00 4.4 C 89 % 1020.9 hPa 0.0 l/m 2.0 km/h (1 Bft) W-NW 0.00 h 53 W/m 2.8 C 4.3 C 4.3 km/h (1 Bft)
11.12.2007 11:00 5.2 C 87 % 1021.0 hPa 0.0 l/m 4.3 km/h (1 Bft) W-SW 0.00 h 93 W/m 3.2 C 4.5 C 7.2 km/h (2 Bft)
11.12.2007 12:00 5.4 C 85 % 1021.0 hPa 0.0 l/m 5.6 km/h (1 Bft) W 0.00 h 39 W/m 3.0 C 4.4 C 9.0 km/h (2 Bft)
11.12.2007 13:00 5.1 C 87 % 1021.0 hPa 0.2 l/m 8.2 km/h (2 Bft) W 0.00 h 39 W/m 3.1 C 3.3 C 12.7 km/h (3 Bft)
11.12.2007 14:00 4.7 C 90 % 1021.0 hPa 0.0 l/m 2.9 km/h (1 Bft) W-NW 0.00 h 30 W/m 3.3 C 4.4 C 5.3 km/h (1 Bft)
11.12.2007 15:00 4.8 C 91 % 1021.3 hPa 0.0 l/m 0.4 km/h (0 Bft) W-NW 0.00 h 31 W/m 3.4 C 4.8 C 1.4 km/h (1 Bft)
11.12.2007 16:00 4.7 C 90 % 1022.0 hPa 0.0 l/m 0.6 km/h (0 Bft) W-NW 0.00 h 6 W/m 3.2 C 4.7 C 1.5 km/h (1 Bft)
11.12.2007 17:00 4.3 C 85 % 1022.9 hPa 0.0 l/m 2.0 km/h (1 Bft) W-NW 0.00 h 0 W/m 2.0 C 4.1 C 4.0 km/h (1 Bft)
11.12.2007 18:00 3.7 C 85 % 1023.8 hPa 0.0 l/m 1.3 km/h (1 Bft) W-SW 0.00 h 0 W/m 1.4 C 3.7 C 3.0 km/h (1 Bft)
11.12.2007 19:00 3.4 C 87 % 1024.7 hPa 0.0 l/m 1.1 km/h (0 Bft) W-SW 0.00 h 0 W/m 1.4 C 3.4 C 2.5 km/h (1 Bft)
11.12.2007 20:00 3.3 C 87 % 1025.5 hPa 0.0 l/m 1.6 km/h (1 Bft) W 0.00 h 0 W/m 1.3 C 3.3 C 3.0 km/h (1 Bft)
11.12.2007 21:00 3.2 C 87 % 1026.3 hPa 0.0 l/m 1.1 km/h (1 Bft) NW 0.00 h 0 W/m 1.2 C 3.1 C 2.5 km/h (1 Bft)
11.12.2007 22:00 2.8 C 89 % 1026.8 hPa 0.0 l/m 0.0 km/h (0 Bft) N 0.00 h 0 W/m 1.1 C 2.8 C 0.2 km/h (0 Bft)
11.12.2007 23:00 2.7 C 90 % 1027.6 hPa 0.0 l/m 0.2 km/h (0 Bft) NW 0.00 h 0 W/m 1.2 C 2.7 C 0.9 km/h (0 Bft)
12.12.2007 00:00 2.7 C 91 % 1027.9 hPa 0.0 l/m 0.0 km/h (0 Bft) NW 0.00 h 0 W/m 1.4 C 2.7 C 0.3 km/h (0 Bft)
12.12.2007 01:00 2.7 C 91 % 1028.2 hPa 0.0 l/m 0.1 km/h (0 Bft) NW 0.00 h 0 W/m 1.4 C 2.7 C 0.8 km/h (0 Bft)
12.12.2007 02:00 2.7 C 92 % 1028.7 hPa 0.0 l/m 0.0 km/h (0 Bft) NW 0.00 h 0 W/m 1.6 C 2.7 C 0.2 km/h (0 Bft)
12.12.2007 03:00 2.7 C 93 % 1029.1 hPa 0.0 l/m 0.1 km/h (0 Bft) NW 0.00 h 0 W/m 1.7 C 2.7 C 0.2 km/h (0 Bft)
12.12.2007 04:00 2.8 C 93 % 1029.4 hPa 0.0 l/m 0.1 km/h (0 Bft) NW 0.00 h 0 W/m 1.8 C 2.8 C 0.4 km/h (0 Bft)
12.12.2007 05:00 2.8 C 93 % 1029.8 hPa 0.0 l/m 0.2 km/h (0 Bft) NW 0.00 h 0 W/m 1.8 C 2.8 C 0.5 km/h (0 Bft)
12.12.2007 06:00 2.7 C 94 % 1030.3 hPa 0.0 l/m 0.8 km/h (0 Bft) NW 0.00 h 0 W/m 1.9 C 2.7 C 1.8 km/h (1 Bft)
12.12.2007 07:00 2.7 C 95 % 1031.0 hPa 0.2 l/m 2.0 km/h (1 Bft) N 0.00 h 0 W/m 2.0 C 2.7 C 3.2 km/h (1 Bft)
12.12.2007 08:00 2.7 C 95 % 1031.6 hPa 0.2 l/m 1.0 km/h (0 Bft) N 0.00 h 6 W/m 2.0 C 2.7 C 1.7 km/h (1 Bft)
12.12.2007 09:00 2.7 C 96 % 1032.1 hPa 0.0 l/m 0.3 km/h (0 Bft) N 0.00 h 18 W/m 2.1 C 2.7 C 0.8 km/h (0 Bft)
12.12.2007 10:00 3.0 C 97 % 1032.8 hPa 0.0 l/m 0.0 km/h (0 Bft) N 0.00 h 27 W/m 2.5 C 3.0 C 0.5 km/h (0 Bft)
12.12.2007 11:00 3.4 C 97 % 1032.9 hPa 0.0 l/m 0.4 km/h (0 Bft) N 0.00 h 40 W/m 3.0 C 3.4 C 1.1 km/h (1 Bft)
12.12.2007 12:00 3.9 C 97 % 1032.9 hPa 0.0 l/m 0.6 km/h (0 Bft) N 0.00 h 66 W/m 3.4 C 3.9 C 1.7 km/h (1 Bft)
12.12.2007 13:00 4.3 C 96 % 1033.1 hPa 0.0 l/m 0.1 km/h (0 Bft) N 0.00 h 78 W/m 3.6 C 4.3 C 0.5 km/h (0 Bft)
12.12.2007 14:00 4.6 C 94 % 1033.0 hPa 0.0 l/m 0.4 km/h (0 Bft) N 0.00 h 67 W/m 3.7 C 4.6 C 1.1 km/h (1 Bft)
12.12.2007 15:00 4.7 C 92 % 1033.2 hPa 0.0 l/m 0.4 km/h (0 Bft) N 0.00 h 27 W/m 3.5 C 4.7 C 1.0 km/h (0 Bft)
12.12.2007 16:00 4.5 C 88 % 1033.7 hPa 0.0 l/m 0.5 km/h (0 Bft) N-NO 0.00 h 7 W/m 2.7 C 4.5 C 2.0 km/h (1 Bft)
12.12.2007 17:00 4.2 C 85 % 1034.0 hPa 0.0 l/m 0.8 km/h (0 Bft) O-NO 0.00 h 0 W/m 2.0 C 4.2 C 2.2 km/h (1 Bft)
12.12.2007 18:00 4.0 C 85 % 1034.3 hPa 0.0 l/m 1.0 km/h (0 Bft) NO 0.00 h 0 W/m 1.6 C 3.9 C 2.8 km/h (1 Bft)
12.12.2007 19:00 3.6 C 85 % 1034.3 hPa 0.0 l/m 0.7 km/h (0 Bft) O-NO 0.00 h 0 W/m 1.4 C 3.6 C 1.8 km/h (1 Bft)
12.12.2007 20:00 3.4 C 87 % 1034.6 hPa 0.0 l/m 0.4 km/h (0 Bft) NO 0.00 h 0 W/m 1.5 C 3.4 C 1.4 km/h (1 Bft)
12.12.2007 21:00 3.7 C 87 % 1034.8 hPa 0.0 l/m 2.7 km/h (1 Bft) NO 0.00 h 0 W/m 1.7 C 3.4 C 5.9 km/h (2 Bft)
12.12.2007 22:00 3.7 C 88 % 1034.9 hPa 0.0 l/m 1.0 km/h (0 Bft) O 0.00 h 0 W/m 1.8 C 3.7 C 2.8 km/h (1 Bft)
12.12.2007 23:00 3.4 C 89 % 1034.9 hPa 0.0 l/m 2.3 km/h (1 Bft) N-NO 0.00 h 0 W/m 1.8 C 3.3 C 5.1 km/h (1 Bft)
13.12.2007 00:00 3.3 C 90 % 1035.0 hPa 0.0 l/m 1.6 km/h (1 Bft) NO 0.00 h 0 W/m 1.8 C 3.1 C 3.7 km/h (1 Bft)
13.12.2007 01:00 3.3 C 89 % 1035.0 hPa 0.0 l/m 1.2 km/h (1 Bft) O 0.00 h 0 W/m 1.7 C 3.3 C 2.3 km/h (1 Bft)
13.12.2007 02:00 3.3 C 89 % 1035.1 hPa 0.0 l/m 1.1 km/h (1 Bft) O-SO 0.00 h 0 W/m 1.7 C 3.3 C 2.3 km/h (1 Bft)
13.12.2007 03:00 3.4 C 89 % 1035.3 hPa 0.0 l/m 1.5 km/h (1 Bft) O-SO 0.00 h 0 W/m 1.7 C 3.3 C 3.1 km/h (1 Bft)
13.12.2007 04:00 3.7 C 87 % 1034.9 hPa 0.0 l/m 2.8 km/h (1 Bft) NO 0.00 h 0 W/m 1.7 C 3.4 C 5.7 km/h (1 Bft)
13.12.2007 05:00 3.9 C 85 % 1034.8 hPa 0.0 l/m 3.7 km/h (1 Bft) N-NO 0.00 h 0 W/m 1.6 C 3.3 C 7.5 km/h (2 Bft)
13.12.2007 06:00 3.8 C 84 % 1034.9 hPa 0.0 l/m 4.0 km/h (1 Bft) NO 0.00 h 0 W/m 1.4 C 3.2 C 8.5 km/h (2 Bft)
13.12.2007 07:00 3.9 C 82 % 1035.1 hPa 0.0 l/m 2.5 km/h (1 Bft) O-NO 0.00 h 0 W/m 1.2 C 3.6 C 6.0 km/h (2 Bft)
13.12.2007 08:00 4.0 C 82 % 1035.4 hPa 0.0 l/m 3.9 km/h (1 Bft) O 0.00 h 18 W/m 1.1 C 3.4 C 7.8 km/h (2 Bft)
13.12.2007 09:00 4.2 C 80 % 1035.5 hPa 0.0 l/m 5.2 km/h (1 Bft) O 0.00 h 36 W/m 1.1 C 3.3 C 10.8 km/h (2 Bft)
13.12.2007 10:00 4.9 C 76 % 1035.7 hPa 0.0 l/m 4.7 km/h (1 Bft) O-SO 0.00 h 94 W/m 1.1 C 4.2 C 9.3 km/h (2 Bft)
13.12.2007 11:00 6.0 C 70 % 1035.8 hPa 0.0 l/m 6.2 km/h (2 Bft) N-NO 1.00 h 302 W/m 1.0 C 5.0 C 12.9 km/h (3 Bft)
13.12.2007 12:00 6.3 C 67 % 1035.5 hPa 0.0 l/m 8.8 km/h (2 Bft) NO 0.65 h 214 W/m 0.6 C 4.7 C 16.5 km/h (3 Bft)
13.12.2007 13:00 6.4 C 68 % 1035.1 hPa 0.0 l/m 5.2 km/h (1 Bft) N-NO 0.08 h 105 W/m 0.9 C 5.6 C 10.7 km/h (2 Bft)
13.12.2007 14:00 5.9 C 67 % 1035.0 hPa 0.0 l/m 7.3 km/h (2 Bft) O 0.00 h 59 W/m 0.2 C 4.5 C 13.9 km/h (3 Bft)
13.12.2007 15:00 5.9 C 66 % 1035.2 hPa 0.0 l/m 5.1 km/h (1 Bft) O-SO 0.17 h 40 W/m 0.0 C 5.2 C 9.5 km/h (2 Bft)
13.12.2007 16:00 5.7 C 68 % 1035.4 hPa 0.0 l/m 4.4 km/h (1 Bft) O 0.00 h 11 W/m 0.4 C 5.2 C 8.9 km/h (2 Bft)
13.12.2007 17:00 4.8 C 72 % 1035.9 hPa 0.0 l/m 3.0 km/h (1 Bft) O 0.00 h 0 W/m 0.2 C 4.4 C 6.6 km/h (2 Bft)
13.12.2007 18:00 4.0 C 78 % 1036.4 hPa 0.0 l/m 0.5 km/h (0 Bft) O-NO 0.00 h 0 W/m 0.5 C 4.0 C 1.8 km/h (1 Bft)
13.12.2007 19:00 3.3 C 82 % 1036.7 hPa 0.0 l/m 2.2 km/h (1 Bft) O-SO 0.00 h 0 W/m 0.5 C 3.1 C 4.1 km/h (1 Bft)
13.12.2007 20:00 3.8 C 80 % 1036.9 hPa 0.0 l/m 2.0 km/h (1 Bft) O 0.00 h 0 W/m 0.7 C 3.6 C 4.0 km/h (1 Bft)
13.12.2007 21:00 4.0 C 75 % 1037.0 hPa 0.0 l/m 1.5 km/h (1 Bft) O-SO 0.00 h 0 W/m -0.1 C 3.9 C 3.4 km/h (1 Bft)
13.12.2007 22:00 3.5 C 75 % 1036.7 hPa 0.0 l/m 1.2 km/h (1 Bft) O 0.00 h 0 W/m -0.5 C 3.4 C 2.7 km/h (1 Bft)
13.12.2007 23:00 2.8 C 76 % 1036.6 hPa 0.0 l/m 1.5 km/h (1 Bft) O 0.00 h 0 W/m -1.1 C 2.6 C 3.1 km/h (1 Bft)
14.12.2007 00:00 2.4 C 75 % 1036.4 hPa 0.0 l/m 1.8 km/h (1 Bft) O-SO 0.00 h 0 W/m -1.6 C 2.1 C 3.5 km/h (1 Bft)
14.12.2007 01:00 1.2 C 79 % 1036.3 hPa 0.0 l/m 0.3 km/h (0 Bft) O 0.00 h 0 W/m -1.9 C 1.2 C 0.9 km/h (0 Bft)
14.12.2007 02:00 0.5 C 84 % 1036.2 hPa 0.0 l/m 0.4 km/h (0 Bft) O 0.00 h 0 W/m -2.0 C 0.5 C 1.0 km/h (0 Bft)
14.12.2007 03:00 0.9 C 84 % 1036.0 hPa 0.0 l/m 0.7 km/h (0 Bft) O 0.00 h 0 W/m -1.5 C 0.8 C 1.9 km/h (1 Bft)
14.12.2007 04:00 1.6 C 81 % 1036.0 hPa 0.0 l/m 1.6 km/h (1 Bft) O-NO 0.00 h 0 W/m -1.4 C 1.4 C 3.9 km/h (1 Bft)
14.12.2007 05:00 1.8 C 79 % 1036.1 hPa 0.0 l/m 3.7 km/h (1 Bft) O-SO 0.00 h 0 W/m -1.4 C 1.1 C 6.2 km/h (2 Bft)
14.12.2007 06:00 1.3 C 81 % 1035.7 hPa 0.0 l/m 3.6 km/h (1 Bft) O-SO 0.00 h 0 W/m -1.7 C 0.7 C 6.1 km/h (2 Bft)
14.12.2007 07:00 0.5 C 77 % 1035.7 hPa 0.0 l/m 1.9 km/h (1 Bft) NO 0.00 h 0 W/m -3.1 C 0.4 C 4.7 km/h (1 Bft)
14.12.2007 08:00 -0.1 C 76 % 1036.2 hPa 0.0 l/m 2.0 km/h (1 Bft) O-SO 0.15 h 17 W/m -3.9 C -0.4 C 4.2 km/h (1 Bft)
14.12.2007 09:00 -0.3 C 76 % 1035.8 hPa 0.0 l/m 1.4 km/h (1 Bft) O-SO 0.35 h 67 W/m -4.0 C -0.4 C 2.8 km/h (1 Bft)
14.12.2007 10:00 0.4 C 73 % 1035.8 hPa 0.0 l/m 3.5 km/h (1 Bft) O-SO 0.22 h 122 W/m -3.9 C -0.1 C 6.8 km/h (2 Bft)
14.12.2007 11:00 1.4 C 71 % 1035.4 hPa 0.2 l/m 10.0 km/h (2 Bft) O-SO 0.92 h 293 W/m -3.3 C -1.3 C 15.7 km/h (3 Bft)
14.12.2007 12:00 1.0 C 72 % 1035.0 hPa 0.0 l/m 13.1 km/h (3 Bft) O-SO 0.65 h 225 W/m -3.6 C -2.6 C 20.2 km/h (4 Bft)
14.12.2007 13:00 0.7 C 72 % 1034.8 hPa 0.0 l/m 5.1 km/h (1 Bft) O-SO 0.00 h 69 W/m -3.8 C -0.5 C 9.9 km/h (2 Bft)
14.12.2007 14:00 0.6 C 72 % 1034.4 hPa 0.0 l/m 4.4 km/h (1 Bft) O-SO 0.00 h 45 W/m -3.9 C -0.5 C 8.6 km/h (2 Bft)
14.12.2007 15:00 0.4 C 71 % 1034.3 hPa 0.0 l/m 3.8 km/h (1 Bft) O 0.00 h 30 W/m -4.3 C -0.3 C 7.7 km/h (2 Bft)
14.12.2007 16:00 0.3 C 70 % 1034.1 hPa 0.0 l/m 4.4 km/h (1 Bft) O-SO 0.00 h 9 W/m -4.5 C -0.7 C 8.3 km/h (2 Bft)
14.12.2007 17:00 0.2 C 70 % 1034.1 hPa 0.0 l/m 2.5 km/h (1 Bft) O-SO 0.00 h 0 W/m -4.7 C -0.2 C 5.5 km/h (1 Bft)
14.12.2007 18:00 0.1 C 68 % 1033.9 hPa 0.0 l/m 4.8 km/h (1 Bft) O-SO 0.00 h 0 W/m -5.0 C -1.1 C 9.1 km/h (2 Bft)
14.12.2007 19:00 -0.0 C 68 % 1033.6 hPa 0.0 l/m 2.8 km/h (1 Bft) NO 0.00 h 0 W/m -5.2 C -0.4 C 6.3 km/h (2 Bft)
14.12.2007 20:00 -0.0 C 68 % 1033.2 hPa 0.0 l/m 2.4 km/h (1 Bft) NO 0.00 h 0 W/m -5.1 C -0.2 C 5.1 km/h (1 Bft)
14.12.2007 21:00 -0.1 C 68 % 1032.6 hPa 0.0 l/m 2.8 km/h (1 Bft) N-NO 0.00 h 0 W/m -5.2 C -0.5 C 6.0 km/h (2 Bft)
14.12.2007 22:00 -0.1 C 68 % 1032.2 hPa 0.0 l/m 4.5 km/h (1 Bft) NO 0.00 h 0 W/m -5.3 C -1.1 C 8.5 km/h (2 Bft)
14.12.2007 23:00 -0.3 C 67 % 1032.2 hPa 0.0 l/m 3.1 km/h (1 Bft) NO 0.00 h 0 W/m -5.6 C -0.9 C 6.6 km/h (2 Bft)
15.12.2007 00:00 -0.4 C 64 % 1032.4 hPa 0.0 l/m 4.4 km/h (1 Bft) N-NO 0.00 h 0 W/m -6.3 C -1.4 C 9.2 km/h (2 Bft)
15.12.2007 01:00 -0.4 C 63 % 1032.1 hPa 0.0 l/m 4.7 km/h (1 Bft) N 0.00 h 0 W/m -6.5 C -1.6 C 10.0 km/h (2 Bft)
15.12.2007 02:00 -0.8 C 62 % 1031.9 hPa 0.0 l/m 5.4 km/h (1 Bft) NO 0.00 h 0 W/m -7.2 C -2.2 C 11.6 km/h (2 Bft)
15.12.2007 03:00 -0.7 C 61 % 1031.9 hPa 0.0 l/m 4.9 km/h (1 Bft) N-NO 0.00 h 0 W/m -7.4 C -2.0 C 10.0 km/h (2 Bft)
15.12.2007 04:00 -1.2 C 64 % 1031.4 hPa 0.0 l/m 4.3 km/h (1 Bft) N-NO 0.00 h 0 W/m -7.0 C -2.2 C 8.7 km/h (2 Bft)
15.12.2007 05:00 -1.7 C 69 % 1031.4 hPa 0.0 l/m 3.7 km/h (1 Bft) O-SO 0.00 h 0 W/m -6.7 C -2.6 C 7.4 km/h (2 Bft)
15.12.2007 06:00 -1.9 C 71 % 1030.8 hPa 0.0 l/m 3.4 km/h (1 Bft) O 0.00 h 0 W/m -6.4 C -2.6 C 7.0 km/h (2 Bft)
15.12.2007 07:00 -1.6 C 71 % 1030.7 hPa 0.0 l/m 4.1 km/h (1 Bft) NO 0.00 h 0 W/m -6.2 C -2.4 C 8.5 km/h (2 Bft)
15.12.2007 08:00 -1.3 C 68 % 1030.7 hPa 0.0 l/m 5.2 km/h (1 Bft) N-NO 0.00 h 8 W/m -6.4 C -2.7 C 10.8 km/h (2 Bft)
15.12.2007 09:00 -1.2 C 67 % 1030.9 hPa 0.0 l/m 7.4 km/h (2 Bft) O 0.00 h 28 W/m -6.6 C -3.7 C 14.5 km/h (3 Bft)
15.12.2007 10:00 -1.0 C 67 % 1031.3 hPa 0.0 l/m 5.5 km/h (1 Bft) N-NO 0.00 h 66 W/m -6.4 C -2.6 C 11.3 km/h (2 Bft)
15.12.2007 11:00 -0.4 C 64 % 1031.3 hPa 0.0 l/m 6.3 km/h (2 Bft) O-SO 0.00 h 98 W/m -6.4 C -2.3 C 12.3 km/h (3 Bft)
15.12.2007 12:00 0.3 C 62 % 1031.1 hPa 0.0 l/m 6.5 km/h (2 Bft) O-SO 0.40 h 192 W/m -6.2 C -1.7 C 13.4 km/h (3 Bft)
15.12.2007 13:00 0.4 C 60 % 1030.8 hPa 0.0 l/m 6.8 km/h (2 Bft) O 0.10 h 96 W/m -6.4 C -1.4 C 13.8 km/h (3 Bft)
15.12.2007 14:00 0.8 C 60 % 1030.9 hPa 0.0 l/m 4.9 km/h (1 Bft) O-SO 0.67 h 146 W/m -6.2 C -0.4 C 9.4 km/h (2 Bft)
15.12.2007 15:00 0.7 C 60 % 1031.2 hPa 0.0 l/m 4.2 km/h (1 Bft) N 0.00 h 36 W/m -6.1 C -0.2 C 9.0 km/h (2 Bft)
15.12.2007 16:00 0.2 C 61 % 1031.7 hPa 0.0 l/m 4.4 km/h (1 Bft) NO 0.00 h 9 W/m -6.5 C -0.9 C 9.5 km/h (2 Bft)
15.12.2007 17:00 -0.4 C 63 % 1031.8 hPa 0.0 l/m 2.6 km/h (1 Bft) O-NO 0.00 h 0 W/m -6.6 C -0.9 C 5.9 km/h (2 Bft)
15.12.2007 18:00 -0.8 C 64 % 1031.9 hPa 0.0 l/m 2.3 km/h (1 Bft) N-NO 0.00 h 0 W/m -6.8 C -1.1 C 5.2 km/h (1 Bft)
15.12.2007 19:00 -1.1 C 65 % 1031.9 hPa 0.0 l/m 1.9 km/h (1 Bft) N 0.00 h 0 W/m -6.9 C -1.4 C 4.7 km/h (1 Bft)
15.12.2007 20:00 -1.4 C 66 % 1032.5 hPa 0.0 l/m 3.8 km/h (1 Bft) N-NO 0.00 h 0 W/m -6.9 C -2.5 C 7.8 km/h (2 Bft)
15.12.2007 21:00 -1.5 C 67 % 1033.0 hPa 0.0 l/m 2.9 km/h (1 Bft) O 0.00 h 0 W/m -6.9 C -2.0 C 6.3 km/h (2 Bft)
15.12.2007 22:00 -1.8 C 68 % 1033.3 hPa 0.0 l/m 3.6 km/h (1 Bft) NO 0.00 h 0 W/m -7.0 C -2.6 C 7.6 km/h (2 Bft)
15.12.2007 23:00 -1.9 C 66 % 1033.4 hPa 0.0 l/m 3.5 km/h (1 Bft) N-NO 0.00 h 0 W/m -7.4 C -2.7 C 7.8 km/h (2 Bft)
16.12.2007 00:00 -2.2 C 66 % 1033.0 hPa 0.0 l/m 4.0 km/h (1 Bft) O 0.00 h 0 W/m -7.7 C -3.2 C 8.5 km/h (2 Bft)
16.12.2007 01:00 -2.3 C 67 % 1032.7 hPa 0.0 l/m 2.5 km/h (1 Bft) NO 0.00 h 0 W/m -7.6 C -2.7 C 5.8 km/h (2 Bft)
16.12.2007 02:00 -2.3 C 67 % 1032.4 hPa 0.0 l/m 1.9 km/h (1 Bft) NO 0.00 h 0 W/m -7.6 C -2.4 C 4.5 km/h (1 Bft)
16.12.2007 03:00 -2.3 C 67 % 1031.9 hPa 0.0 l/m 2.4 km/h (1 Bft) N-NO 0.00 h 0 W/m -7.5 C -2.5 C 5.5 km/h (1 Bft)
16.12.2007 04:00 -2.5 C 69 % 1031.5 hPa 0.0 l/m 3.4 km/h (1 Bft) N-NO 0.00 h 0 W/m -7.5 C -3.3 C 7.4 km/h (2 Bft)
16.12.2007 05:00 -2.9 C 71 % 1031.5 hPa 0.0 l/m 2.4 km/h (1 Bft) N-NO 0.00 h 0 W/m -7.4 C -3.2 C 5.5 km/h (1 Bft)
16.12.2007 06:00 -2.6 C 73 % 1031.7 hPa 0.0 l/m 4.7 km/h (1 Bft) O 0.00 h 0 W/m -6.7 C -3.9 C 9.9 km/h (2 Bft)
16.12.2007 07:00 -1.8 C 72 % 1031.9 hPa 0.0 l/m 4.2 km/h (1 Bft) O 0.00 h 0 W/m -6.1 C -2.8 C 8.8 km/h (2 Bft)
16.12.2007 08:00 -1.3 C 72 % 1031.8 hPa 0.0 l/m 4.1 km/h (1 Bft) O 0.00 h 10 W/m -5.6 C -2.3 C 8.6 km/h (2 Bft)
16.12.2007 09:00 -0.8 C 72 % 1031.9 hPa 0.0 l/m 3.9 km/h (1 Bft) O 0.00 h 37 W/m -5.2 C -1.5 C 7.9 km/h (2 Bft)
16.12.2007 10:00 -0.1 C 70 % 1032.4 hPa 0.0 l/m 5.2 km/h (1 Bft) O-SO 0.00 h 61 W/m -4.9 C -1.5 C 10.3 km/h (2 Bft)
16.12.2007 11:00 0.5 C 68 % 1032.1 hPa 0.0 l/m 5.1 km/h (1 Bft) O-SO 0.00 h 97 W/m -4.8 C -0.8 C 10.6 km/h (2 Bft)
16.12.2007 12:00 0.6 C 68 % 1031.9 hPa 0.0 l/m 4.2 km/h (1 Bft) O-SO 0.00 h 67 W/m -4.7 C -0.4 C 7.8 km/h (2 Bft)
16.12.2007 13:00 0.7 C 68 % 1031.5 hPa 0.0 l/m 5.5 km/h (1 Bft) O 0.00 h 54 W/m -4.6 C -0.7 C 10.8 km/h (2 Bft)
16.12.2007 14:00 0.7 C 68 % 1031.5 hPa 0.0 l/m 4.9 km/h (1 Bft) O 0.00 h 24 W/m -4.5 C -0.4 C 9.6 km/h (2 Bft)
16.12.2007 15:00 0.6 C 69 % 1031.6 hPa 0.0 l/m 5.9 km/h (2 Bft) O 0.00 h 11 W/m -4.4 C -0.9 C 12.1 km/h (2 Bft)
16.12.2007 16:00 0.5 C 70 % 1031.7 hPa 0.0 l/m 5.0 km/h (1 Bft) O 0.00 h 0 W/m -4.3 C -0.8 C 9.9 km/h (2 Bft)
16.12.2007 17:00 0.4 C 72 % 1031.8 hPa 0.0 l/m 4.0 km/h (1 Bft) N-NO 0.00 h 0 W/m -4.0 C -0.4 C 8.3 km/h (2 Bft)
16.12.2007 18:00 0.4 C 72 % 1031.8 hPa 0.0 l/m 4.4 km/h (1 Bft) N-NO 0.00 h 0 W/m -4.1 C -0.6 C 9.3 km/h (2 Bft)
16.12.2007 19:00 0.4 C 71 % 1031.5 hPa 0.0 l/m 5.4 km/h (1 Bft) NO 0.00 h 0 W/m -4.3 C -1.0 C 11.4 km/h (2 Bft)
16.12.2007 20:00 0.2 C 70 % 1031.6 hPa 0.0 l/m 4.4 km/h (1 Bft) NO 0.00 h 0 W/m -4.6 C -0.7 C 8.7 km/h (2 Bft)
16.12.2007 21:00 0.1 C 70 % 1031.8 hPa 0.0 l/m 4.4 km/h (1 Bft) O 0.00 h 0 W/m -4.7 C -0.9 C 8.8 km/h (2 Bft)
16.12.2007 22:00 0.0 C 68 % 1031.6 hPa 0.0 l/m 6.4 km/h (2 Bft) N-NO 0.00 h 0 W/m -5.1 C -1.8 C 12.9 km/h (3 Bft)
16.12.2007 23:00 -0.1 C 69 % 1031.4 hPa 0.0 l/m 3.6 km/h (1 Bft) O 0.00 h 0 W/m -5.2 C -0.9 C 7.4 km/h (2 Bft)
Min-Datum _ 16.12.07 15.12.07 10.12.07 - 10.12.07 - - - 16.12.07 16.12.07 10.12.07
_ Min-Zeit 06:00 14:42 01:45 - 05:14 - - - 00:41 06:31 05:14
Minimum _ -3.1 C 57 % 996.3 hPa - 0.0 km/h (0 Bft) - - - -7.8 C -7.1 C 0.0 km/h (0 Bft)
Max-Datum _ 13.12.07 12.12.07 13.12.07 10.12.07 14.12.07 - 13.12.07 14.12.07 10.12.07 13.12.07 10.12.07
_ Max-Zeit 13:03 10:14 20:45 05:03 12:15 - 11:00 11:27 12:58 13:06 01:55
Maximum _ 6.8 C 97 % 1037.0 hPa 2.4 l/m 25.0 km/h
O-SO (4 Bft)
- 0.02 h 406 W/m 4.4 C 6.8 C 45.2 km/h
SW (6 Bft)
Durchschnitt _ 2.3 C 80 % 1027.2 hPa #20.6 l/m 3.6 km/h (1 Bft) O #5:21 h 61 W/m -1.0 C 1.6 C 7.1 km/h (2 Bft)
© Kaiko 2007